sensor_id;sensor_type;location;lat;lon;timestamp;P1;durP1;ratioP1;P2;durP2;ratioP2
33170;SDS011;19535;50.672;4.206;2023-01-24T00:02:23;28.63;;;26.17;;
33170;SDS011;19535;50.672;4.206;2023-01-24T00:04:50;38.00;;;34.40;;
33170;SDS011;19535;50.672;4.206;2023-01-24T00:07:17;35.22;;;32.28;;
33170;SDS011;19535;50.672;4.206;2023-01-24T00:09:45;33.08;;;30.17;;
33170;SDS011;19535;50.672;4.206;2023-01-24T00:12:12;28.63;;;26.23;;
33170;SDS011;19535;50.672;4.206;2023-01-24T00:14:39;28.38;;;26.08;;
33170;SDS011;19535;50.672;4.206;2023-01-24T00:17:06;24.35;;;22.42;;
33170;SDS011;19535;50.672;4.206;2023-01-24T00:19:36;24.33;;;22.25;;
33170;SDS011;19535;50.672;4.206;2023-01-24T00:22:03;22.80;;;20.90;;
33170;SDS011;19535;50.672;4.206;2023-01-24T00:24:30;21.67;;;19.88;;
33170;SDS011;19535;50.672;4.206;2023-01-24T00:26:59;20.27;;;18.67;;
33170;SDS011;19535;50.672;4.206;2023-01-24T00:29:26;20.10;;;18.30;;
33170;SDS011;19535;50.672;4.206;2023-01-24T00:31:53;19.45;;;17.65;;
33170;SDS011;19535;50.672;4.206;2023-01-24T00:34:20;19.58;;;17.77;;
33170;SDS011;19535;50.672;4.206;2023-01-24T00:36:47;18.02;;;16.52;;
33170;SDS011;19535;50.672;4.206;2023-01-24T00:39:14;16.77;;;15.43;;
33170;SDS011;19535;50.672;4.206;2023-01-24T00:41:41;18.10;;;16.50;;
33170;SDS011;19535;50.672;4.206;2023-01-24T00:44:07;17.90;;;16.40;;
33170;SDS011;19535;50.672;4.206;2023-01-24T00:46:34;16.02;;;14.73;;
33170;SDS011;19535;50.672;4.206;2023-01-24T00:49:01;16.27;;;14.98;;
33170;SDS011;19535;50.672;4.206;2023-01-24T00:51:28;16.17;;;14.52;;
33170;SDS011;19535;50.672;4.206;2023-01-24T00:53:55;16.15;;;14.75;;
33170;SDS011;19535;50.672;4.206;2023-01-24T00:56:22;14.93;;;13.43;;
33170;SDS011;19535;50.672;4.206;2023-01-24T00:58:49;15.63;;;14.23;;
33170;SDS011;19535;50.672;4.206;2023-01-24T01:01:16;14.55;;;13.35;;
33170;SDS011;19535;50.672;4.206;2023-01-24T01:03:43;14.68;;;13.38;;
33170;SDS011;19535;50.672;4.206;2023-01-24T01:06:12;14.20;;;13.10;;
33170;SDS011;19535;50.672;4.206;2023-01-24T01:08:39;13.30;;;12.30;;
33170;SDS011;19535;50.672;4.206;2023-01-24T01:11:07;14.27;;;12.98;;
33170;SDS011;19535;50.672;4.206;2023-01-24T01:13:34;15.07;;;13.75;;
33170;SDS011;19535;50.672;4.206;2023-01-24T01:16:02;13.35;;;12.23;;
33170;SDS011;19535;50.672;4.206;2023-01-24T01:18:29;14.20;;;12.98;;
33170;SDS011;19535;50.672;4.206;2023-01-24T01:20:56;13.45;;;12.32;;
33170;SDS011;19535;50.672;4.206;2023-01-24T01:23:22;12.98;;;11.98;;
33170;SDS011;19535;50.672;4.206;2023-01-24T01:25:49;12.65;;;11.65;;
33170;SDS011;19535;50.672;4.206;2023-01-24T01:28:16;12.95;;;11.95;;
33170;SDS011;19535;50.672;4.206;2023-01-24T01:30:43;12.90;;;11.82;;
33170;SDS011;19535;50.672;4.206;2023-01-24T01:33:14;13.70;;;12.50;;
33170;SDS011;19535;50.672;4.206;2023-01-24T01:35:41;12.57;;;11.57;;
33170;SDS011;19535;50.672;4.206;2023-01-24T01:38:08;13.32;;;12.23;;
33170;SDS011;19535;50.672;4.206;2023-01-24T01:40:34;12.23;;;11.32;;
33170;SDS011;19535;50.672;4.206;2023-01-24T01:43:02;11.98;;;11.07;;
33170;SDS011;19535;50.672;4.206;2023-01-24T01:48:18;12.55;;;11.55;;
33170;SDS011;19535;50.672;4.206;2023-01-24T01:54:02;11.80;;;10.90;;
33170;SDS011;19535;50.672;4.206;2023-01-24T01:56:41;12.43;;;11.48;;
33170;SDS011;19535;50.672;4.206;2023-01-24T01:59:18;11.80;;;10.82;;
33170;SDS011;19535;50.672;4.206;2023-01-24T02:01:53;11.48;;;10.57;;
33170;SDS011;19535;50.672;4.206;2023-01-24T02:04:25;11.07;;;10.18;;
33170;SDS011;19535;50.672;4.206;2023-01-24T02:07:00;11.40;;;10.50;;
33170;SDS011;19535;50.672;4.206;2023-01-24T02:09:40;11.27;;;10.38;;
33170;SDS011;19535;50.672;4.206;2023-01-24T02:12:13;11.30;;;10.50;;
33170;SDS011;19535;50.672;4.206;2023-01-24T02:14:59;10.88;;;10.07;;
33170;SDS011;19535;50.672;4.206;2023-01-24T02:17:48;11.10;;;10.30;;
33170;SDS011;19535;50.672;4.206;2023-01-24T02:20:18;10.95;;;10.15;;
33170;SDS011;19535;50.672;4.206;2023-01-24T02:28:12;10.90;;;10.10;;
33170;SDS011;19535;50.672;4.206;2023-01-24T02:30:39;10.93;;;10.13;;
33170;SDS011;19535;50.672;4.206;2023-01-24T02:35:42;11.30;;;10.50;;
33170;SDS011;19535;50.672;4.206;2023-01-24T02:38:20;10.25;;;9.45;;
33170;SDS011;19535;50.672;4.206;2023-01-24T02:40:50;9.88;;;9.18;;
33170;SDS011;19535;50.672;4.206;2023-01-24T02:43:23;9.82;;;9.13;;
33170;SDS011;19535;50.672;4.206;2023-01-24T02:45:52;10.40;;;9.60;;
33170;SDS011;19535;50.672;4.206;2023-01-24T02:48:19;10.25;;;9.45;;
33170;SDS011;19535;50.672;4.206;2023-01-24T02:50:45;10.13;;;9.43;;
33170;SDS011;19535;50.672;4.206;2023-01-24T02:53:31;10.20;;;9.48;;
33170;SDS011;19535;50.672;4.206;2023-01-24T02:56:02;10.70;;;9.68;;
33170;SDS011;19535;50.672;4.206;2023-01-24T02:58:48;9.63;;;8.93;;
33170;SDS011;19535;50.672;4.206;2023-01-24T03:01:16;9.80;;;9.10;;
33170;SDS011;19535;50.672;4.206;2023-01-24T03:03:44;9.55;;;8.88;;
33170;SDS011;19535;50.672;4.206;2023-01-24T03:06:12;9.05;;;8.45;;
33170;SDS011;19535;50.672;4.206;2023-01-24T03:08:40;9.30;;;8.60;;
33170;SDS011;19535;50.672;4.206;2023-01-24T03:11:07;9.45;;;8.73;;
33170;SDS011;19535;50.672;4.206;2023-01-24T03:13:35;9.57;;;8.88;;
33170;SDS011;19535;50.672;4.206;2023-01-24T03:16:21;9.25;;;8.65;;
33170;SDS011;19535;50.672;4.206;2023-01-24T03:19:07;8.90;;;8.25;;
33170;SDS011;19535;50.672;4.206;2023-01-24T03:21:52;8.95;;;8.35;;
33170;SDS011;19535;50.672;4.206;2023-01-24T03:24:38;9.07;;;8.43;;
33170;SDS011;19535;50.672;4.206;2023-01-24T03:27:24;8.88;;;8.27;;
33170;SDS011;19535;50.672;4.206;2023-01-24T03:30:09;8.85;;;8.18;;
33170;SDS011;19535;50.672;4.206;2023-01-24T03:32:58;8.93;;;8.32;;
33170;SDS011;19535;50.672;4.206;2023-01-24T03:35:46;8.77;;;8.18;;
33170;SDS011;19535;50.672;4.206;2023-01-24T03:38:20;9.60;;;8.90;;
33170;SDS011;19535;50.672;4.206;2023-01-24T03:41:06;8.98;;;8.35;;
33170;SDS011;19535;50.672;4.206;2023-01-24T03:43:32;8.75;;;8.15;;
33170;SDS011;19535;50.672;4.206;2023-01-24T03:46:00;8.65;;;7.95;;
33170;SDS011;19535;50.672;4.206;2023-01-24T03:48:27;9.02;;;8.35;;
33170;SDS011;19535;50.672;4.206;2023-01-24T03:51:00;8.57;;;7.97;;
33170;SDS011;19535;50.672;4.206;2023-01-24T03:53:45;8.65;;;8.05;;
33170;SDS011;19535;50.672;4.206;2023-01-24T03:56:12;8.93;;;8.23;;
33170;SDS011;19535;50.672;4.206;2023-01-24T03:58:39;8.38;;;7.78;;
33170;SDS011;19535;50.672;4.206;2023-01-24T04:01:06;8.32;;;7.72;;
33170;SDS011;19535;50.672;4.206;2023-01-24T04:03:33;8.18;;;7.57;;
33170;SDS011;19535;50.672;4.206;2023-01-24T04:06:00;8.18;;;7.57;;
33170;SDS011;19535;50.672;4.206;2023-01-24T04:08:27;8.70;;;8.10;;
33170;SDS011;19535;50.672;4.206;2023-01-24T04:10:54;8.60;;;8.00;;
33170;SDS011;19535;50.672;4.206;2023-01-24T04:13:23;8.38;;;7.78;;
33170;SDS011;19535;50.672;4.206;2023-01-24T04:15:50;8.25;;;7.65;;
33170;SDS011;19535;50.672;4.206;2023-01-24T04:18:17;8.02;;;7.43;;
33170;SDS011;19535;50.672;4.206;2023-01-24T04:20:43;7.70;;;7.10;;
33170;SDS011;19535;50.672;4.206;2023-01-24T04:23:10;7.45;;;6.95;;
33170;SDS011;19535;50.672;4.206;2023-01-24T04:25:38;7.57;;;7.07;;
33170;SDS011;19535;50.672;4.206;2023-01-24T04:28:04;7.10;;;6.60;;
33170;SDS011;19535;50.672;4.206;2023-01-24T04:30:32;7.25;;;6.75;;
33170;SDS011;19535;50.672;4.206;2023-01-24T04:32:59;6.43;;;5.93;;
33170;SDS011;19535;50.672;4.206;2023-01-24T04:35:26;6.85;;;6.35;;
33170;SDS011;19535;50.672;4.206;2023-01-24T04:38:02;6.65;;;6.15;;
33170;SDS011;19535;50.672;4.206;2023-01-24T04:40:29;6.80;;;6.30;;
33170;SDS011;19535;50.672;4.206;2023-01-24T04:42:56;6.78;;;6.35;;
33170;SDS011;19535;50.672;4.206;2023-01-24T04:45:24;6.15;;;5.75;;
33170;SDS011;19535;50.672;4.206;2023-01-24T04:47:51;6.40;;;5.90;;
33170;SDS011;19535;50.672;4.206;2023-01-24T04:50:19;6.68;;;6.18;;
33170;SDS011;19535;50.672;4.206;2023-01-24T04:52:46;6.57;;;6.07;;
33170;SDS011;19535;50.672;4.206;2023-01-24T04:55:13;5.72;;;5.32;;
33170;SDS011;19535;50.672;4.206;2023-01-24T04:57:40;6.47;;;5.97;;
33170;SDS011;19535;50.672;4.206;2023-01-24T05:00:07;6.60;;;6.10;;
33170;SDS011;19535;50.672;4.206;2023-01-24T05:02:34;6.00;;;5.60;;
33170;SDS011;19535;50.672;4.206;2023-01-24T05:05:04;6.65;;;6.15;;
33170;SDS011;19535;50.672;4.206;2023-01-24T05:07:32;5.97;;;5.57;;
33170;SDS011;19535;50.672;4.206;2023-01-24T05:09:58;5.85;;;5.45;;
33170;SDS011;19535;50.672;4.206;2023-01-24T05:12:25;6.50;;;6.00;;
33170;SDS011;19535;50.672;4.206;2023-01-24T05:14:52;6.72;;;6.22;;
33170;SDS011;19535;50.672;4.206;2023-01-24T05:17:19;6.40;;;6.00;;
33170;SDS011;19535;50.672;4.206;2023-01-24T05:19:46;6.15;;;5.75;;
33170;SDS011;19535;50.672;4.206;2023-01-24T05:22:12;6.25;;;5.85;;
33170;SDS011;19535;50.672;4.206;2023-01-24T05:24:39;6.60;;;6.13;;
33170;SDS011;19535;50.672;4.206;2023-01-24T05:27:06;6.03;;;5.60;;
33170;SDS011;19535;50.672;4.206;2023-01-24T05:29:34;6.13;;;5.72;;
33170;SDS011;19535;50.672;4.206;2023-01-24T05:32:01;5.97;;;5.57;;
33170;SDS011;19535;50.672;4.206;2023-01-24T05:34:28;6.15;;;5.75;;
33170;SDS011;19535;50.672;4.206;2023-01-24T05:36:55;6.28;;;5.88;;
33170;SDS011;19535;50.672;4.206;2023-01-24T05:39:22;5.78;;;5.32;;
33170;SDS011;19535;50.672;4.206;2023-01-24T05:41:48;5.93;;;5.53;;
33170;SDS011;19535;50.672;4.206;2023-01-24T05:44:15;5.68;;;5.28;;
33170;SDS011;19535;50.672;4.206;2023-01-24T05:46:42;5.40;;;5.00;;
33170;SDS011;19535;50.672;4.206;2023-01-24T05:49:10;5.70;;;5.30;;
33170;SDS011;19535;50.672;4.206;2023-01-24T05:51:37;5.85;;;5.45;;
33170;SDS011;19535;50.672;4.206;2023-01-24T05:54:03;5.20;;;4.90;;
33170;SDS011;19535;50.672;4.206;2023-01-24T05:56:31;5.38;;;5.05;;
33170;SDS011;19535;50.672;4.206;2023-01-24T05:58:57;5.75;;;5.35;;
33170;SDS011;19535;50.672;4.206;2023-01-24T06:01:27;5.50;;;5.10;;
33170;SDS011;19535;50.672;4.206;2023-01-24T06:03:54;5.20;;;4.85;;
33170;SDS011;19535;50.672;4.206;2023-01-24T06:06:21;5.70;;;5.20;;
33170;SDS011;19535;50.672;4.206;2023-01-24T06:08:49;5.32;;;4.93;;
33170;SDS011;19535;50.672;4.206;2023-01-24T06:11:20;5.82;;;5.43;;
33170;SDS011;19535;50.672;4.206;2023-01-24T06:13:50;5.38;;;5.03;;
33170;SDS011;19535;50.672;4.206;2023-01-24T06:16:20;5.18;;;4.88;;
33170;SDS011;19535;50.672;4.206;2023-01-24T06:18:48;5.45;;;5.07;;
33170;SDS011;19535;50.672;4.206;2023-01-24T06:26:42;5.40;;;5.00;;
33170;SDS011;19535;50.672;4.206;2023-01-24T06:29:10;5.65;;;5.25;;
33170;SDS011;19535;50.672;4.206;2023-01-24T06:31:46;5.25;;;4.95;;
33170;SDS011;19535;50.672;4.206;2023-01-24T06:37:37;5.75;;;5.28;;
33170;SDS011;19535;50.672;4.206;2023-01-24T06:40:13;5.82;;;5.43;;
33170;SDS011;19535;50.672;4.206;2023-01-24T06:42:44;5.40;;;5.00;;
33170;SDS011;19535;50.672;4.206;2023-01-24T06:45:12;5.53;;;5.13;;
33170;SDS011;19535;50.672;4.206;2023-01-24T06:47:39;5.85;;;5.35;;
33170;SDS011;19535;50.672;4.206;2023-01-24T06:50:06;5.72;;;5.32;;
33170;SDS011;19535;50.672;4.206;2023-01-24T06:52:36;5.82;;;5.43;;
33170;SDS011;19535;50.672;4.206;2023-01-24T06:55:03;5.38;;;5.07;;
33170;SDS011;19535;50.672;4.206;2023-01-24T06:57:30;5.90;;;5.40;;
33170;SDS011;19535;50.672;4.206;2023-01-24T06:59:57;5.50;;;5.10;;
33170;SDS011;19535;50.672;4.206;2023-01-24T07:02:24;5.70;;;5.28;;
33170;SDS011;19535;50.672;4.206;2023-01-24T07:04:50;5.97;;;5.53;;
33170;SDS011;19535;50.672;4.206;2023-01-24T07:07:17;5.70;;;5.30;;
33170;SDS011;19535;50.672;4.206;2023-01-24T07:09:44;6.07;;;5.57;;
33170;SDS011;19535;50.672;4.206;2023-01-24T07:12:11;5.80;;;5.38;;
33170;SDS011;19535;50.672;4.206;2023-01-24T07:14:38;17.77;;;16.38;;
33170;SDS011;19535;50.672;4.206;2023-01-24T07:17:04;52.88;;;47.97;;
33170;SDS011;19535;50.672;4.206;2023-01-24T07:19:31;46.47;;;41.50;;
33170;SDS011;19535;50.672;4.206;2023-01-24T07:21:58;38.47;;;35.00;;
33170;SDS011;19535;50.672;4.206;2023-01-24T07:24:27;43.70;;;38.85;;
33170;SDS011;19535;50.672;4.206;2023-01-24T07:26:56;48.00;;;43.40;;
33170;SDS011;19535;50.672;4.206;2023-01-24T07:29:23;38.33;;;35.10;;
33170;SDS011;19535;50.672;4.206;2023-01-24T07:31:50;34.63;;;31.42;;
33170;SDS011;19535;50.672;4.206;2023-01-24T07:34:17;31.45;;;28.45;;
33170;SDS011;19535;50.672;4.206;2023-01-24T07:36:44;29.00;;;26.65;;
33170;SDS011;19535;50.672;4.206;2023-01-24T07:39:12;27.38;;;25.08;;
33170;SDS011;19535;50.672;4.206;2023-01-24T07:41:39;26.92;;;24.27;;
33170;SDS011;19535;50.672;4.206;2023-01-24T07:44:08;24.55;;;22.45;;
33170;SDS011;19535;50.672;4.206;2023-01-24T07:46:35;22.67;;;20.77;;
33170;SDS011;19535;50.672;4.206;2023-01-24T07:49:02;23.42;;;21.50;;
33170;SDS011;19535;50.672;4.206;2023-01-24T07:51:29;20.42;;;18.92;;
33170;SDS011;19535;50.672;4.206;2023-01-24T07:53:56;20.67;;;19.08;;
33170;SDS011;19535;50.672;4.206;2023-01-24T07:56:23;20.73;;;19.02;;
33170;SDS011;19535;50.672;4.206;2023-01-24T07:58:51;18.35;;;17.00;;
33170;SDS011;19535;50.672;4.206;2023-01-24T08:01:19;17.83;;;16.52;;
33170;SDS011;19535;50.672;4.206;2023-01-24T08:03:47;17.67;;;16.17;;
33170;SDS011;19535;50.672;4.206;2023-01-24T08:06:14;17.33;;;15.98;;
33170;SDS011;19535;50.672;4.206;2023-01-24T08:08:41;16.58;;;15.27;;
33170;SDS011;19535;50.672;4.206;2023-01-24T08:11:08;15.18;;;13.88;;
33170;SDS011;19535;50.672;4.206;2023-01-24T08:13:37;15.70;;;14.27;;
33170;SDS011;19535;50.672;4.206;2023-01-24T08:16:04;16.40;;;14.77;;
33170;SDS011;19535;50.672;4.206;2023-01-24T08:18:31;14.65;;;13.55;;
33170;SDS011;19535;50.672;4.206;2023-01-24T08:20:58;14.55;;;13.40;;
33170;SDS011;19535;50.672;4.206;2023-01-24T08:23:25;14.60;;;13.30;;
33170;SDS011;19535;50.672;4.206;2023-01-24T08:25:52;13.30;;;11.93;;
33170;SDS011;19535;50.672;4.206;2023-01-24T08:28:19;12.68;;;11.65;;
33170;SDS011;19535;50.672;4.206;2023-01-24T08:30:46;11.88;;;10.68;;
33170;SDS011;19535;50.672;4.206;2023-01-24T08:33:12;10.63;;;9.82;;
33170;SDS011;19535;50.672;4.206;2023-01-24T08:35:44;11.15;;;10.23;;
33170;SDS011;19535;50.672;4.206;2023-01-24T08:38:12;11.52;;;10.63;;
33170;SDS011;19535;50.672;4.206;2023-01-24T08:40:39;11.02;;;10.13;;
33170;SDS011;19535;50.672;4.206;2023-01-24T08:43:15;11.27;;;9.90;;
33170;SDS011;19535;50.672;4.206;2023-01-24T08:45:43;10.93;;;10.00;;
33170;SDS011;19535;50.672;4.206;2023-01-24T08:48:10;10.98;;;10.07;;
33170;SDS011;19535;50.672;4.206;2023-01-24T08:50:36;10.38;;;9.57;;
33170;SDS011;19535;50.672;4.206;2023-01-24T08:53:03;10.65;;;9.75;;
33170;SDS011;19535;50.672;4.206;2023-01-24T08:55:30;9.65;;;8.82;;
33170;SDS011;19535;50.672;4.206;2023-01-24T08:58:01;9.68;;;8.88;;
33170;SDS011;19535;50.672;4.206;2023-01-24T09:00:29;10.05;;;9.35;;
33170;SDS011;19535;50.672;4.206;2023-01-24T09:02:57;9.60;;;8.80;;
33170;SDS011;19535;50.672;4.206;2023-01-24T09:05:28;9.45;;;8.75;;
33170;SDS011;19535;50.672;4.206;2023-01-24T09:07:56;9.32;;;8.25;;
33170;SDS011;19535;50.672;4.206;2023-01-24T09:10:23;9.13;;;8.43;;
33170;SDS011;19535;50.672;4.206;2023-01-24T09:12:50;9.02;;;8.43;;
33170;SDS011;19535;50.672;4.206;2023-01-24T09:15:17;9.38;;;8.60;;
33170;SDS011;19535;50.672;4.206;2023-01-24T09:17:44;9.00;;;8.30;;
33170;SDS011;19535;50.672;4.206;2023-01-24T09:20:11;9.07;;;8.38;;
33170;SDS011;19535;50.672;4.206;2023-01-24T09:22:37;8.77;;;8.18;;
33170;SDS011;19535;50.672;4.206;2023-01-24T09:25:05;9.32;;;8.52;;
33170;SDS011;19535;50.672;4.206;2023-01-24T09:27:34;8.48;;;7.55;;
33170;SDS011;19535;50.672;4.206;2023-01-24T09:30:02;8.73;;;8.02;;
33170;SDS011;19535;50.672;4.206;2023-01-24T09:32:31;8.20;;;7.47;;
33170;SDS011;19535;50.672;4.206;2023-01-24T09:34:58;8.13;;;7.53;;
33170;SDS011;19535;50.672;4.206;2023-01-24T09:37:25;8.73;;;7.32;;
33170;SDS011;19535;50.672;4.206;2023-01-24T09:39:52;8.60;;;7.75;;
33170;SDS011;19535;50.672;4.206;2023-01-24T09:42:38;8.65;;;7.47;;
33170;SDS011;19535;50.672;4.206;2023-01-24T09:47:41;8.25;;;7.45;;
33170;SDS011;19535;50.672;4.206;2023-01-24T09:50:15;8.02;;;7.32;;
33170;SDS011;19535;50.672;4.206;2023-01-24T09:52:51;8.18;;;7.22;;
33170;SDS011;19535;50.672;4.206;2023-01-24T09:55:27;8.18;;;7.57;;
33170;SDS011;19535;50.672;4.206;2023-01-24T09:57:58;8.02;;;7.22;;
33170;SDS011;19535;50.672;4.206;2023-01-24T10:00:34;8.00;;;7.40;;
33170;SDS011;19535;50.672;4.206;2023-01-24T10:03:04;9.32;;;7.13;;
33170;SDS011;19535;50.672;4.206;2023-01-24T10:05:38;7.88;;;7.20;;
33170;SDS011;19535;50.672;4.206;2023-01-24T10:19:19;7.75;;;7.07;;
33170;SDS011;19535;50.672;4.206;2023-01-24T10:22:13;7.40;;;6.80;;
33170;SDS011;19535;50.672;4.206;2023-01-24T10:24:52;6.70;;;6.20;;
33170;SDS011;19535;50.672;4.206;2023-01-24T10:27:28;6.85;;;6.15;;
33170;SDS011;19535;50.672;4.206;2023-01-24T10:30:01;6.40;;;5.85;;
33170;SDS011;19535;50.672;4.206;2023-01-24T10:32:32;6.85;;;6.25;;
33170;SDS011;19535;50.672;4.206;2023-01-24T10:35:14;6.20;;;5.70;;
33170;SDS011;19535;50.672;4.206;2023-01-24T10:37:42;6.15;;;5.68;;
33170;SDS011;19535;50.672;4.206;2023-01-24T10:40:15;6.70;;;6.20;;
33170;SDS011;19535;50.672;4.206;2023-01-24T10:42:42;6.30;;;5.70;;
33170;SDS011;19535;50.672;4.206;2023-01-24T10:45:21;6.75;;;6.15;;
33170;SDS011;19535;50.672;4.206;2023-01-24T10:51:09;7.10;;;6.03;;
33170;SDS011;19535;50.672;4.206;2023-01-24T10:53:40;6.80;;;6.05;;
33170;SDS011;19535;50.672;4.206;2023-01-24T10:56:07;5.78;;;5.38;;
33170;SDS011;19535;50.672;4.206;2023-01-24T10:58:35;6.15;;;5.75;;
33170;SDS011;19535;50.672;4.206;2023-01-24T11:01:50;6.00;;;5.50;;
33170;SDS011;19535;50.672;4.206;2023-01-24T11:04:38;6.38;;;5.82;;
33170;SDS011;19535;50.672;4.206;2023-01-24T11:06:58;6.32;;;5.88;;
33170;SDS011;19535;50.672;4.206;2023-01-24T11:09:30;6.78;;;5.97;;
33170;SDS011;19535;50.672;4.206;2023-01-24T11:11:57;6.45;;;5.85;;
33170;SDS011;19535;50.672;4.206;2023-01-24T11:14:33;6.68;;;5.97;;
33170;SDS011;19535;50.672;4.206;2023-01-24T11:17:01;6.22;;;5.82;;
33170;SDS011;19535;50.672;4.206;2023-01-24T11:19:29;8.00;;;5.88;;
33170;SDS011;19535;50.672;4.206;2023-01-24T11:21:59;5.75;;;5.25;;
33170;SDS011;19535;50.672;4.206;2023-01-24T11:24:27;6.57;;;5.97;;
33170;SDS011;19535;50.672;4.206;2023-01-24T11:27:03;5.68;;;5.28;;
33170;SDS011;19535;50.672;4.206;2023-01-24T11:29:31;5.53;;;5.05;;
33170;SDS011;19535;50.672;4.206;2023-01-24T11:32:04;6.03;;;5.53;;
33170;SDS011;19535;50.672;4.206;2023-01-24T11:35:07;7.03;;;6.43;;
33170;SDS011;19535;50.672;4.206;2023-01-24T11:40:30;5.75;;;5.13;;
33170;SDS011;19535;50.672;4.206;2023-01-24T11:43:11;5.20;;;4.80;;
33170;SDS011;19535;50.672;4.206;2023-01-24T11:48:35;5.38;;;4.90;;
33170;SDS011;19535;50.672;4.206;2023-01-24T11:51:17;6.50;;;4.57;;
33170;SDS011;19535;50.672;4.206;2023-01-24T11:54:00;5.25;;;4.78;;
33170;SDS011;19535;50.672;4.206;2023-01-24T12:07:31;4.82;;;4.43;;
33170;SDS011;19535;50.672;4.206;2023-01-24T12:18:23;5.93;;;4.65;;
33170;SDS011;19535;50.672;4.206;2023-01-24T12:21:07;4.50;;;4.20;;
33170;SDS011;19535;50.672;4.206;2023-01-24T12:23:47;5.70;;;5.15;;
33170;SDS011;19535;50.672;4.206;2023-01-24T12:26:21;5.95;;;4.95;;
33170;SDS011;19535;50.672;4.206;2023-01-24T12:29:12;6.28;;;4.88;;
33170;SDS011;19535;50.672;4.206;2023-01-24T12:37:30;5.30;;;4.80;;
33170;SDS011;19535;50.672;4.206;2023-01-24T12:43:51;5.50;;;5.00;;
33170;SDS011;19535;50.672;4.206;2023-01-24T12:46:31;5.75;;;5.20;;
33170;SDS011;19535;50.672;4.206;2023-01-24T12:49:07;5.47;;;4.97;;
33170;SDS011;19535;50.672;4.206;2023-01-24T12:55:02;5.10;;;4.63;;
33170;SDS011;19535;50.672;4.206;2023-01-24T13:00:18;5.22;;;4.72;;
33170;SDS011;19535;50.672;4.206;2023-01-24T13:06:01;5.03;;;4.53;;
33170;SDS011;19535;50.672;4.206;2023-01-24T13:08:45;6.28;;;5.10;;
33170;SDS011;19535;50.672;4.206;2023-01-24T13:11:21;9.77;;;5.97;;
33170;SDS011;19535;50.672;4.206;2023-01-24T13:14:01;11.18;;;5.80;;
33170;SDS011;19535;50.672;4.206;2023-01-24T13:30:52;14.77;;;13.35;;
33170;SDS011;19535;50.672;4.206;2023-01-24T13:36:14;38.30;;;34.28;;
33170;SDS011;19535;50.672;4.206;2023-01-24T13:38:44;37.13;;;33.28;;
33170;SDS011;19535;50.672;4.206;2023-01-24T13:41:15;34.42;;;30.92;;
33170;SDS011;19535;50.672;4.206;2023-01-24T13:46:47;25.88;;;23.58;;
33170;SDS011;19535;50.672;4.206;2023-01-24T13:52:04;22.05;;;19.95;;
33170;SDS011;19535;50.672;4.206;2023-01-24T13:55:00;21.02;;;18.88;;
33170;SDS011;19535;50.672;4.206;2023-01-24T13:57:31;19.48;;;17.88;;
33170;SDS011;19535;50.672;4.206;2023-01-24T14:02:41;16.95;;;15.45;;
33170;SDS011;19535;50.672;4.206;2023-01-24T14:16:09;13.07;;;11.77;;
33170;SDS011;19535;50.672;4.206;2023-01-24T14:19:26;14.23;;;11.55;;
33170;SDS011;19535;50.672;4.206;2023-01-24T14:24:54;11.10;;;10.07;;
33170;SDS011;19535;50.672;4.206;2023-01-24T14:27:33;11.15;;;10.10;;
33170;SDS011;19535;50.672;4.206;2023-01-24T14:32:47;10.02;;;9.10;;
33170;SDS011;19535;50.672;4.206;2023-01-24T14:37:44;10.32;;;9.32;;
33170;SDS011;19535;50.672;4.206;2023-01-24T14:42:51;8.82;;;7.88;;
33170;SDS011;19535;50.672;4.206;2023-01-24T14:45:26;9.02;;;8.18;;
33170;SDS011;19535;50.672;4.206;2023-01-24T14:47:54;9.13;;;8.32;;
33170;SDS011;19535;50.672;4.206;2023-01-24T14:52:50;8.43;;;7.63;;
33170;SDS011;19535;50.672;4.206;2023-01-24T14:57:54;8.18;;;7.38;;
33170;SDS011;19535;50.672;4.206;2023-01-24T15:00:21;8.07;;;7.30;;
33170;SDS011;19535;50.672;4.206;2023-01-24T15:02:50;8.75;;;7.95;;
33170;SDS011;19535;50.672;4.206;2023-01-24T15:05:22;7.78;;;7.07;;
33170;SDS011;19535;50.672;4.206;2023-01-24T15:07:51;8.48;;;7.68;;
33170;SDS011;19535;50.672;4.206;2023-01-24T15:10:25;7.75;;;7.05;;
33170;SDS011;19535;50.672;4.206;2023-01-24T15:12:55;7.38;;;6.68;;
33170;SDS011;19535;50.672;4.206;2023-01-24T15:15:25;8.13;;;7.38;;
33170;SDS011;19535;50.672;4.206;2023-01-24T15:17:53;8.07;;;7.35;;
33170;SDS011;19535;50.672;4.206;2023-01-24T15:20:28;8.43;;;7.55;;
33170;SDS011;19535;50.672;4.206;2023-01-24T15:22:56;7.68;;;7.00;;
33170;SDS011;19535;50.672;4.206;2023-01-24T15:25:26;7.80;;;7.00;;
33170;SDS011;19535;50.672;4.206;2023-01-24T15:27:55;7.73;;;7.03;;
33170;SDS011;19535;50.672;4.206;2023-01-24T15:30:24;8.30;;;7.50;;
33170;SDS011;19535;50.672;4.206;2023-01-24T15:40:44;25.40;;;22.70;;
33170;SDS011;19535;50.672;4.206;2023-01-24T15:43:19;24.42;;;21.35;;
33170;SDS011;19535;50.672;4.206;2023-01-24T15:46:06;26.60;;;19.60;;
33170;SDS011;19535;50.672;4.206;2023-01-24T15:49:00;30.23;;;20.65;;
33170;SDS011;19535;50.672;4.206;2023-01-24T15:51:30;22.48;;;18.73;;
33170;SDS011;19535;50.672;4.206;2023-01-24T15:54:08;25.88;;;17.75;;
33170;SDS011;19535;50.672;4.206;2023-01-24T15:56:37;23.10;;;17.35;;
33170;SDS011;19535;50.672;4.206;2023-01-24T15:59:17;24.58;;;16.50;;
33170;SDS011;19535;50.672;4.206;2023-01-24T16:01:44;24.63;;;16.88;;
33170;SDS011;19535;50.672;4.206;2023-01-24T16:04:12;26.30;;;15.50;;
33170;SDS011;19535;50.672;4.206;2023-01-24T16:06:48;25.75;;;15.48;;
33170;SDS011;19535;50.672;4.206;2023-01-24T16:09:16;27.63;;;15.93;;
33170;SDS011;19535;50.672;4.206;2023-01-24T16:11:43;28.35;;;16.60;;
33170;SDS011;19535;50.672;4.206;2023-01-24T16:14:22;26.60;;;14.90;;
33170;SDS011;19535;50.672;4.206;2023-01-24T16:16:50;26.58;;;14.27;;
33170;SDS011;19535;50.672;4.206;2023-01-24T16:19:20;26.13;;;14.13;;
33170;SDS011;19535;50.672;4.206;2023-01-24T16:21:48;22.98;;;13.80;;
33170;SDS011;19535;50.672;4.206;2023-01-24T16:24:15;26.83;;;13.98;;
33170;SDS011;19535;50.672;4.206;2023-01-24T16:26:52;25.98;;;13.82;;
33170;SDS011;19535;50.672;4.206;2023-01-24T16:29:20;31.23;;;13.55;;
33170;SDS011;19535;50.672;4.206;2023-01-24T16:31:49;40.92;;;14.05;;
33170;SDS011;19535;50.672;4.206;2023-01-24T16:34:16;26.08;;;13.02;;
33170;SDS011;19535;50.672;4.206;2023-01-24T16:36:44;35.38;;;13.55;;
33170;SDS011;19535;50.672;4.206;2023-01-24T16:39:18;33.33;;;13.18;;
33170;SDS011;19535;50.672;4.206;2023-01-24T16:41:47;38.20;;;13.85;;
33170;SDS011;19535;50.672;4.206;2023-01-24T16:44:14;40.00;;;14.05;;
33170;SDS011;19535;50.672;4.206;2023-01-24T16:46:49;41.20;;;13.70;;
33170;SDS011;19535;50.672;4.206;2023-01-24T16:49:16;51.70;;;13.73;;
33170;SDS011;19535;50.672;4.206;2023-01-24T16:51:43;34.67;;;13.50;;
33170;SDS011;19535;50.672;4.206;2023-01-24T16:54:11;37.22;;;15.15;;
33170;SDS011;19535;50.672;4.206;2023-01-24T16:56:39;72.63;;;48.75;;
33170;SDS011;19535;50.672;4.206;2023-01-24T16:59:08;67.20;;;45.28;;
33170;SDS011;19535;50.672;4.206;2023-01-24T17:01:35;69.68;;;42.45;;
33170;SDS011;19535;50.672;4.206;2023-01-24T17:04:02;54.20;;;36.25;;
33170;SDS011;19535;50.672;4.206;2023-01-24T17:06:30;55.33;;;37.20;;
33170;SDS011;19535;50.672;4.206;2023-01-24T17:08:57;60.15;;;35.08;;
33170;SDS011;19535;50.672;4.206;2023-01-24T17:11:24;56.40;;;31.33;;
33170;SDS011;19535;50.672;4.206;2023-01-24T17:13:51;43.92;;;29.13;;
33170;SDS011;19535;50.672;4.206;2023-01-24T17:16:18;40.53;;;25.55;;
33170;SDS011;19535;50.672;4.206;2023-01-24T17:18:44;47.22;;;25.45;;
33170;SDS011;19535;50.672;4.206;2023-01-24T17:21:13;47.42;;;24.20;;